createdAt,value
2017-12-26T00:00:23.152Z,938.5
2017-12-26T00:01:31.172Z,938.5
2017-12-26T00:02:39.271Z,938.5
2017-12-26T00:03:47.528Z,938.5
2017-12-26T00:04:55.444Z,938.5
2017-12-26T00:06:03.594Z,938.4
2017-12-26T00:07:11.620Z,938.4
2017-12-26T00:08:19.776Z,938.4
2017-12-26T00:09:27.798Z,938.4
2017-12-26T00:10:35.879Z,938.4
2017-12-26T00:11:44.022Z,938.4
2017-12-26T00:12:52.065Z,938.4
2017-12-26T00:14:00.137Z,938.3
2017-12-26T00:15:08.292Z,938.4
2017-12-26T00:16:16.468Z,938.3
2017-12-26T00:17:24.531Z,938.3
2017-12-26T00:18:32.482Z,938.4
2017-12-26T00:19:40.567Z,938.3
2017-12-26T00:20:48.666Z,938.3
2017-12-26T00:21:56.819Z,938.3
2017-12-26T00:23:04.883Z,938.3
2017-12-26T00:24:12.911Z,938.3
2017-12-26T00:25:20.999Z,938.3
2017-12-26T00:26:29.163Z,938.3
2017-12-26T00:27:37.187Z,938.3
2017-12-26T00:28:45.327Z,938.3
2017-12-26T00:29:53.342Z,938.3
2017-12-26T00:31:01.594Z,938.2
2017-12-26T00:32:09.518Z,938.2
2017-12-26T00:33:17.603Z,938.2
2017-12-26T00:34:25.810Z,938.2
2017-12-26T00:35:33.780Z,938.2
2017-12-26T00:36:41.863Z,938.2
2017-12-26T00:37:49.957Z,938.1
2017-12-26T00:38:58.043Z,938.1
2017-12-26T00:40:06.335Z,938.0
2017-12-26T00:41:14.214Z,938.0
2017-12-26T00:42:22.300Z,938.0
2017-12-26T00:43:30.388Z,938.1
2017-12-26T00:44:38.477Z,938.1
2017-12-26T00:45:46.618Z,938.0
2017-12-26T00:46:54.765Z,938.0
2017-12-26T00:48:02.733Z,938.0
2017-12-26T00:49:11.001Z,937.9
2017-12-26T00:50:19.029Z,937.9
2017-12-26T00:51:27.114Z,937.9
2017-12-26T00:52:35.078Z,937.9
2017-12-26T00:53:43.551Z,937.9
2017-12-26T00:54:51.628Z,937.8
2017-12-26T00:55:59.716Z,937.9
2017-12-26T00:57:08.005Z,937.9
2017-12-26T00:58:15.892Z,937.8
2017-12-26T00:59:23.976Z,937.9
2017-12-26T01:00:32.061Z,937.8
2017-12-26T01:01:40.150Z,937.8
2017-12-26T01:02:48.356Z,937.8
2017-12-26T01:03:56.321Z,937.8
2017-12-26T01:05:04.407Z,937.8
2017-12-26T01:06:12.548Z,937.9
2017-12-26T01:07:20.580Z,937.9
2017-12-26T01:08:28.725Z,937.9
2017-12-26T01:09:36.753Z,937.8
2017-12-26T01:10:44.845Z,937.8
2017-12-26T01:11:52.942Z,937.8
2017-12-26T01:13:01.010Z,937.8
2017-12-26T01:14:09.158Z,937.8
2017-12-26T01:15:17.372Z,937.8
2017-12-26T01:16:25.272Z,937.8
2017-12-26T01:17:33.358Z,937.8
2017-12-26T01:18:41.580Z,937.8
2017-12-26T01:19:49.609Z,937.7
2017-12-26T01:20:57.630Z,937.8
2017-12-26T01:22:05.717Z,937.8
2017-12-26T01:23:13.805Z,937.7
2017-12-26T01:24:21.892Z,937.6
2017-12-26T01:25:30.126Z,937.7
2017-12-26T01:26:38.073Z,937.6
2017-12-26T01:27:46.156Z,937.6
2017-12-26T01:28:54.241Z,937.6
2017-12-26T01:30:02.324Z,937.6
2017-12-26T01:31:10.544Z,937.6
2017-12-26T01:32:18.511Z,937.6
2017-12-26T01:33:26.597Z,937.6
2017-12-26T01:34:34.811Z,937.6
2017-12-26T01:35:42.778Z,937.6
2017-12-26T01:36:50.924Z,937.6
2017-12-26T01:37:58.954Z,937.6
2017-12-26T01:39:07.045Z,937.6
2017-12-26T01:40:15.143Z,937.6
2017-12-26T01:41:23.224Z,937.6
2017-12-26T01:42:31.441Z,937.6
2017-12-26T01:43:39.464Z,937.5
2017-12-26T01:44:47.495Z,937.5
2017-12-26T01:45:55.583Z,937.5
2017-12-26T01:47:03.666Z,937.6
2017-12-26T01:48:11.809Z,937.6
2017-12-26T01:49:19.840Z,937.5
2017-12-26T01:50:27.980Z,937.5
2017-12-26T01:51:36.014Z,937.5
2017-12-26T01:52:44.100Z,937.5
2017-12-26T01:53:52.313Z,937.5
2017-12-26T01:55:00.283Z,937.5
2017-12-26T01:56:08.368Z,937.5
2017-12-26T01:57:16.614Z,937.4
2017-12-26T01:58:24.560Z,937.4
2017-12-26T01:59:32.683Z,937.4
2017-12-26T02:00:40.723Z,937.3
2017-12-26T02:01:48.965Z,937.3
2017-12-26T02:02:56.898Z,937.3
2017-12-26T02:04:04.984Z,937.3
2017-12-26T02:05:13.190Z,937.3
2017-12-26T02:06:21.213Z,937.2
2017-12-26T02:07:29.242Z,937.2
2017-12-26T02:08:37.331Z,937.1
2017-12-26T02:09:45.419Z,937.2
2017-12-26T02:10:53.569Z,937.3
2017-12-26T02:12:01.617Z,937.2
2017-12-26T02:13:09.704Z,937.2
2017-12-26T02:14:17.792Z,937.1
2017-12-26T02:15:26.077Z,937.2
2017-12-26T02:16:34.092Z,937.3
2017-12-26T02:17:42.057Z,937.2
2017-12-26T02:18:50.143Z,937.2
2017-12-26T02:19:58.422Z,937.0
2017-12-26T02:21:06.325Z,937.0
2017-12-26T02:22:14.474Z,937.0
2017-12-26T02:23:22.500Z,937.0
2017-12-26T02:24:30.763Z,936.9
2017-12-26T02:25:38.684Z,936.9
2017-12-26T02:26:46.770Z,936.9
2017-12-26T02:27:54.984Z,937.0
2017-12-26T02:29:02.954Z,937.1
2017-12-26T02:30:11.039Z,936.9
2017-12-26T02:31:19.126Z,936.9
2017-12-26T02:32:27.214Z,936.8
2017-12-26T02:33:35.352Z,936.9
2017-12-26T02:34:43.426Z,936.8
2017-12-26T02:35:51.472Z,936.9
2017-12-26T02:36:59.558Z,936.8
2017-12-26T02:38:07.765Z,936.9
2017-12-26T02:39:15.787Z,936.8
2017-12-26T02:40:23.815Z,936.8
2017-12-26T02:41:31.903Z,936.7
2017-12-26T02:42:39.989Z,936.7
2017-12-26T02:43:48.118Z,936.6
2017-12-26T02:44:56.218Z,936.5
2017-12-26T02:46:04.253Z,936.5
2017-12-26T02:47:12.337Z,936.6
2017-12-26T02:48:20.423Z,936.6
2017-12-26T02:49:28.509Z,936.6
2017-12-26T02:50:36.649Z,936.5
2017-12-26T02:51:44.683Z,936.5
2017-12-26T02:52:52.884Z,936.5
2017-12-26T02:54:00.977Z,936.5
2017-12-26T02:55:08.941Z,936.6
2017-12-26T02:56:17.084Z,936.6
2017-12-26T02:57:25.147Z,936.6
2017-12-26T02:58:33.203Z,936.5
2017-12-26T02:59:41.286Z,936.5
2017-12-26T03:00:49.376Z,936.5
2017-12-26T03:01:57.644Z,936.5
2017-12-26T03:03:05.546Z,936.4
2017-12-26T03:04:13.638Z,936.4
2017-12-26T03:05:21.722Z,936.4
2017-12-26T03:06:29.808Z,936.3
2017-12-26T03:07:38.015Z,936.3
2017-12-26T03:08:45.980Z,936.4
2017-12-26T03:09:54.122Z,936.4
2017-12-26T03:11:02.209Z,936.4
2017-12-26T03:12:10.244Z,936.3
2017-12-26T03:13:18.389Z,936.4
2017-12-26T03:14:26.419Z,936.4
2017-12-26T03:15:34.661Z,936.3
2017-12-26T03:16:42.686Z,936.3
2017-12-26T03:17:50.676Z,936.2
2017-12-26T03:18:58.888Z,936.2
2017-12-26T03:20:06.890Z,936.2
2017-12-26T03:21:14.976Z,936.2
2017-12-26T03:22:23.064Z,936.2
2017-12-26T03:23:31.149Z,936.1
2017-12-26T03:24:39.291Z,936.1
2017-12-26T03:25:47.379Z,936.1
2017-12-26T03:26:55.408Z,936.1
2017-12-26T03:28:03.498Z,936.0
2017-12-26T03:29:11.775Z,936.0
2017-12-26T03:30:19.871Z,936.0
2017-12-26T03:31:27.754Z,936.0
2017-12-26T03:32:35.843Z,935.8
2017-12-26T03:33:43.926Z,935.8
2017-12-26T03:34:52.014Z,935.8
2017-12-26T03:36:00.906Z,935.9
2017-12-26T03:37:08.185Z,935.9
2017-12-26T03:38:16.357Z,935.8
2017-12-26T03:39:24.357Z,935.9
2017-12-26T03:40:32.442Z,935.9
2017-12-26T03:41:40.647Z,936.0
2017-12-26T03:42:48.813Z,935.9
2017-12-26T03:43:56.731Z,936.0
2017-12-26T03:45:04.857Z,935.9
2017-12-26T03:46:12.910Z,936.0
2017-12-26T03:47:21.179Z,935.9
2017-12-26T03:48:29.094Z,935.9
2017-12-26T03:49:37.168Z,935.9
2017-12-26T03:50:45.315Z,935.9
2017-12-26T03:51:53.341Z,935.9
2017-12-26T03:53:01.489Z,935.9
2017-12-26T03:54:09.516Z,935.8
2017-12-26T03:55:17.606Z,935.8
2017-12-26T03:56:25.687Z,935.9
2017-12-26T03:57:33.831Z,935.8
2017-12-26T03:58:41.980Z,935.7
2017-12-26T03:59:49.951Z,935.7
2017-12-26T04:00:58.042Z,935.7
2017-12-26T04:02:06.126Z,935.7
2017-12-26T04:03:14.211Z,935.7
2017-12-26T04:04:22.354Z,935.7
2017-12-26T04:05:30.385Z,935.6
2017-12-26T04:06:38.630Z,935.6
2017-12-26T04:07:46.556Z,935.6
2017-12-26T04:08:54.649Z,935.6
2017-12-26T04:10:02.850Z,935.6
2017-12-26T04:11:10.814Z,935.5
2017-12-26T04:12:18.902Z,935.6
2017-12-26T04:13:27.042Z,935.6
2017-12-26T04:14:35.074Z,935.6
2017-12-26T04:15:43.214Z,935.5
2017-12-26T04:16:51.246Z,935.5
2017-12-26T04:17:59.332Z,935.6
2017-12-26T04:19:07.416Z,935.5
2017-12-26T04:20:15.507Z,935.6
2017-12-26T04:21:23.709Z,935.5
2017-12-26T04:22:31.677Z,935.5
2017-12-26T04:23:39.762Z,935.5
2017-12-26T04:24:47.848Z,935.4
2017-12-26T04:25:55.935Z,935.5
2017-12-26T04:27:04.141Z,935.4
2017-12-26T04:28:12.113Z,935.4
2017-12-26T04:29:20.247Z,935.4
2017-12-26T04:30:28.275Z,935.5
2017-12-26T04:31:36.364Z,935.5
2017-12-26T04:32:44.568Z,935.5
2017-12-26T04:33:52.630Z,935.5
2017-12-26T04:35:00.620Z,935.5
2017-12-26T04:36:08.707Z,935.4
2017-12-26T04:37:16.793Z,935.4
2017-12-26T04:38:25.004Z,935.4
2017-12-26T04:39:32.967Z,935.2
2017-12-26T04:40:41.046Z,935.3
2017-12-26T04:41:49.130Z,935.3
2017-12-26T04:42:57.219Z,935.4
2017-12-26T04:44:05.424Z,935.4
2017-12-26T04:45:13.454Z,935.4
2017-12-26T04:46:21.482Z,935.3
2017-12-26T04:47:29.563Z,935.3
2017-12-26T04:48:37.666Z,935.3
2017-12-26T04:49:45.787Z,935.3
2017-12-26T04:50:53.817Z,935.3
2017-12-26T04:52:01.902Z,935.2
2017-12-26T04:53:09.986Z,935.3
2017-12-26T04:54:18.090Z,935.2
2017-12-26T04:55:26.235Z,935.3
2017-12-26T04:56:34.264Z,935.3
2017-12-26T04:57:42.351Z,935.3
2017-12-26T04:58:50.435Z,935.3
2017-12-26T04:59:58.524Z,935.2
2017-12-26T05:01:06.738Z,935.2
2017-12-26T05:02:14.698Z,935.2
2017-12-26T05:03:22.792Z,935.2
2017-12-26T05:04:30.871Z,935.1
2017-12-26T05:05:38.956Z,935.1
2017-12-26T05:06:47.096Z,935.1
2017-12-26T05:07:55.128Z,935.2
2017-12-26T05:09:03.211Z,935.1
2017-12-26T05:10:11.312Z,935.2
2017-12-26T05:11:19.384Z,935.1
2017-12-26T05:12:27.586Z,935.2
2017-12-26T05:13:35.552Z,935.2
2017-12-26T05:14:43.649Z,935.2
2017-12-26T05:15:51.731Z,935.2
2017-12-26T05:16:59.875Z,935.2
2017-12-26T05:18:08.023Z,935.2
2017-12-26T05:19:15.988Z,935.3
2017-12-26T05:20:24.076Z,935.2
2017-12-26T05:21:32.214Z,935.2
2017-12-26T05:22:40.252Z,935.2
2017-12-26T05:23:48.440Z,935.2
2017-12-26T05:24:56.532Z,935.1
2017-12-26T05:26:04.559Z,935.2
2017-12-26T05:27:12.643Z,935.2
2017-12-26T05:28:20.730Z,935.1
2017-12-26T05:29:28.934Z,935.2
2017-12-26T05:30:36.898Z,935.1
2017-12-26T05:31:44.984Z,935.0
2017-12-26T05:32:53.126Z,935.1
2017-12-26T05:34:01.186Z,935.1
2017-12-26T05:35:09.298Z,935.0
2017-12-26T05:36:17.324Z,935.0
2017-12-26T05:37:25.712Z,935.0
2017-12-26T05:38:33.735Z,935.0
2017-12-26T05:39:41.819Z,935.0
2017-12-26T05:40:50.025Z,935.0
2017-12-26T05:41:57.992Z,935.0
2017-12-26T05:43:06.074Z,935.0
2017-12-26T05:44:14.157Z,935.0
2017-12-26T05:45:22.245Z,935.0
2017-12-26T05:46:30.388Z,934.9
2017-12-26T05:47:38.414Z,934.9
2017-12-26T05:48:46.622Z,934.9
2017-12-26T05:49:54.583Z,934.9
2017-12-26T05:51:02.674Z,935.0
2017-12-26T05:52:10.812Z,935.0
2017-12-26T05:53:18.848Z,934.9
2017-12-26T05:54:26.928Z,935.0
2017-12-26T05:55:35.015Z,934.9
2017-12-26T05:56:43.096Z,934.9
2017-12-26T05:57:51.303Z,934.9
2017-12-26T05:58:59.262Z,934.9
2017-12-26T06:00:07.350Z,934.8
2017-12-26T06:01:15.437Z,934.8
2017-12-26T06:02:23.528Z,934.8
2017-12-26T06:03:31.659Z,934.9
2017-12-26T06:04:39.747Z,934.9
2017-12-26T06:05:47.803Z,934.8
2017-12-26T06:06:55.935Z,934.8
2017-12-26T06:08:03.940Z,934.7
2017-12-26T06:09:12.147Z,934.8
2017-12-26T06:10:20.143Z,934.7
2017-12-26T06:11:28.210Z,934.7
2017-12-26T06:12:36.292Z,934.8
2017-12-26T06:13:44.372Z,934.8
2017-12-26T06:14:52.538Z,934.7
2017-12-26T06:16:00.545Z,934.8
2017-12-26T06:17:08.626Z,934.8
2017-12-26T06:18:16.711Z,934.8
2017-12-26T06:19:24.795Z,934.8
2017-12-26T06:20:33.006Z,934.8
2017-12-26T06:21:40.974Z,934.8
2017-12-26T06:22:49.058Z,934.8
2017-12-26T06:23:57.146Z,934.8
2017-12-26T06:25:05.230Z,934.8
2017-12-26T06:26:13.434Z,934.7
2017-12-26T06:27:21.399Z,934.7
2017-12-26T06:28:29.481Z,934.7
2017-12-26T06:29:37.769Z,934.7
2017-12-26T06:30:45.654Z,934.7
2017-12-26T06:31:53.793Z,934.7
2017-12-26T06:33:01.823Z,934.7
2017-12-26T06:34:09.905Z,934.6
2017-12-26T06:35:17.992Z,934.5
2017-12-26T06:36:26.134Z,934.6
2017-12-26T06:37:34.288Z,934.5
2017-12-26T06:38:42.247Z,934.5
2017-12-26T06:39:50.332Z,934.5
2017-12-26T06:40:58.418Z,934.6
2017-12-26T06:42:06.777Z,934.5
2017-12-26T06:43:14.746Z,934.6
2017-12-26T06:44:22.775Z,934.5
2017-12-26T06:45:30.856Z,934.5
2017-12-26T06:46:38.940Z,934.5
2017-12-26T06:47:47.026Z,934.4
2017-12-26T06:48:55.230Z,934.4
2017-12-26T06:50:03.190Z,934.4
2017-12-26T06:51:11.291Z,934.4
2017-12-26T06:52:19.470Z,934.4
2017-12-26T06:53:27.462Z,934.4
2017-12-26T06:54:35.667Z,934.4
2017-12-26T06:55:43.809Z,934.4
2017-12-26T06:56:51.716Z,934.5
2017-12-26T06:57:59.798Z,934.5
2017-12-26T06:59:07.885Z,934.5
2017-12-26T07:00:16.280Z,934.4
2017-12-26T07:01:24.054Z,934.5
2017-12-26T07:02:32.139Z,934.5
2017-12-26T07:03:40.224Z,934.5
2017-12-26T07:04:48.735Z,934.4
2017-12-26T07:05:56.520Z,934.5
2017-12-26T07:07:04.478Z,934.5
2017-12-26T07:08:12.619Z,934.4
2017-12-26T07:09:20.647Z,934.5
2017-12-26T07:10:28.734Z,934.5
2017-12-26T07:11:36.874Z,934.5
2017-12-26T07:12:44.904Z,934.5
2017-12-26T07:13:52.987Z,934.5
2017-12-26T07:15:01.124Z,934.5
2017-12-26T07:16:09.157Z,934.5
2017-12-26T07:17:17.298Z,934.5
2017-12-26T07:18:25.328Z,934.5
2017-12-26T07:19:33.556Z,934.5
2017-12-26T07:20:41.605Z,934.5
2017-12-26T07:21:49.582Z,934.5
2017-12-26T07:22:57.726Z,934.5
2017-12-26T07:24:06.031Z,934.5
2017-12-26T07:25:13.860Z,934.5
2017-12-26T07:26:21.950Z,934.4
2017-12-26T07:27:30.034Z,934.4
2017-12-26T07:28:38.173Z,934.4
2017-12-26T07:29:46.203Z,934.4
2017-12-26T07:30:54.287Z,934.4
2017-12-26T07:32:02.372Z,934.4
2017-12-26T07:33:10.757Z,934.4
2017-12-26T07:34:18.898Z,934.4
2017-12-26T07:35:26.627Z,934.4
2017-12-26T07:36:34.733Z,934.4
2017-12-26T07:37:42.798Z,934.4
2017-12-26T07:38:50.883Z,934.3
2017-12-26T07:39:59.030Z,934.3
2017-12-26T07:41:07.052Z,934.2
2017-12-26T07:42:15.211Z,934.2
2017-12-26T07:43:23.378Z,934.2
2017-12-26T07:44:31.309Z,934.3
2017-12-26T07:45:39.449Z,934.3
2017-12-26T07:46:47.482Z,934.3
2017-12-26T07:47:55.584Z,934.3
2017-12-26T07:49:03.648Z,934.3
2017-12-26T07:50:11.733Z,934.2
2017-12-26T07:51:20.121Z,934.2
2017-12-26T07:52:27.900Z,934.2
2017-12-26T07:53:35.986Z,934.2
2017-12-26T07:54:44.074Z,934.2
2017-12-26T07:55:52.218Z,934.1
2017-12-26T07:57:00.371Z,934.1
2017-12-26T07:58:08.333Z,934.1
2017-12-26T07:59:16.416Z,934.1
2017-12-26T08:00:24.506Z,934.0
2017-12-26T08:01:32.737Z,934.0
2017-12-26T08:02:40.729Z,934.0
2017-12-26T08:03:48.759Z,934.0
2017-12-26T08:04:56.845Z,934.0
2017-12-26T08:06:05.067Z,934.0
2017-12-26T08:07:13.014Z,934.1
2017-12-26T08:08:21.158Z,934.1
2017-12-26T08:09:29.184Z,934.1
2017-12-26T08:10:37.274Z,934.1
2017-12-26T08:11:45.410Z,934.1
2017-12-26T08:12:53.451Z,934.1
2017-12-26T08:14:01.764Z,934.0
2017-12-26T08:15:09.734Z,934.0
2017-12-26T08:16:17.701Z,934.1
2017-12-26T08:17:25.789Z,934.1
2017-12-26T08:18:33.873Z,934.1
2017-12-26T08:19:42.144Z,934.2
2017-12-26T08:20:50.042Z,934.1
2017-12-26T08:21:58.137Z,934.2
2017-12-26T08:23:06.223Z,934.2
2017-12-26T08:24:14.454Z,934.2
2017-12-26T08:25:22.444Z,934.1
2017-12-26T08:26:30.484Z,934.1
2017-12-26T08:27:38.624Z,934.1
2017-12-26T08:28:46.653Z,934.1
2017-12-26T08:29:54.741Z,934.1
2017-12-26T08:31:03.270Z,934.1
2017-12-26T08:32:10.908Z,934.1
2017-12-26T08:33:18.992Z,934.1
2017-12-26T08:34:27.106Z,934.2
2017-12-26T08:35:35.160Z,934.2
2017-12-26T08:36:43.368Z,934.2
2017-12-26T08:37:52.612Z,934.1
2017-12-26T08:38:59.447Z,934.1
2017-12-26T08:40:07.500Z,934.0
2017-12-26T08:41:15.586Z,934.0
2017-12-26T08:42:24.343Z,934.1
2017-12-26T08:43:31.809Z,934.1
2017-12-26T08:44:39.839Z,934.0
2017-12-26T08:45:47.922Z,934.0
2017-12-26T08:46:56.008Z,934.0
2017-12-26T08:48:04.173Z,934.1
2017-12-26T08:49:12.182Z,934.1
2017-12-26T08:50:20.263Z,934.2
2017-12-26T08:51:28.349Z,934.1
2017-12-26T08:52:36.432Z,934.2
2017-12-26T08:53:44.635Z,934.2
2017-12-26T08:54:52.598Z,934.2
2017-12-26T08:56:00.687Z,934.1
2017-12-26T08:57:08.907Z,934.2
2017-12-26T08:58:16.862Z,934.1
2017-12-26T08:59:25.005Z,934.1
2017-12-26T09:00:33.037Z,934.0
2017-12-26T09:01:41.141Z,934.0
2017-12-26T09:02:49.381Z,934.0
2017-12-26T09:03:57.293Z,934.0
2017-12-26T09:05:05.433Z,934.0
2017-12-26T09:06:13.595Z,934.0
2017-12-26T09:07:21.549Z,934.1
2017-12-26T09:08:29.631Z,934.1
2017-12-26T09:09:37.717Z,934.0
2017-12-26T09:10:45.919Z,934.0
2017-12-26T09:11:53.886Z,934.1
2017-12-26T09:13:01.972Z,934.0
2017-12-26T09:14:10.055Z,934.0
2017-12-26T09:15:18.323Z,934.1
2017-12-26T09:16:26.283Z,934.1
2017-12-26T09:17:34.312Z,934.2
2017-12-26T09:18:42.395Z,934.2
2017-12-26T09:19:50.478Z,934.3
2017-12-26T09:20:58.564Z,934.4
2017-12-26T09:22:06.706Z,934.4
2017-12-26T09:23:14.739Z,934.4
2017-12-26T09:24:22.820Z,934.4
2017-12-26T09:25:30.903Z,934.4
2017-12-26T09:26:38.991Z,934.4
2017-12-26T09:27:47.129Z,934.4
2017-12-26T09:28:55.161Z,934.4
2017-12-26T09:30:03.244Z,934.4
2017-12-26T09:31:11.386Z,934.3
2017-12-26T09:32:19.412Z,934.2
2017-12-26T09:33:27.556Z,934.2
2017-12-26T09:34:35.583Z,934.2
2017-12-26T09:35:43.671Z,934.2
2017-12-26T09:36:51.758Z,934.2
2017-12-26T09:38:00.035Z,934.1
2017-12-26T09:39:08.163Z,934.1
2017-12-26T09:40:16.010Z,934.1
2017-12-26T09:41:24.094Z,934.0
2017-12-26T09:42:32.180Z,934.1
2017-12-26T09:43:40.405Z,934.2
2017-12-26T09:44:48.407Z,934.1
2017-12-26T09:45:56.435Z,934.1
2017-12-26T09:47:04.577Z,934.0
2017-12-26T09:48:12.764Z,934.1
2017-12-26T09:49:20.689Z,934.0
2017-12-26T09:50:28.832Z,934.1
2017-12-26T09:51:36.872Z,934.0
2017-12-26T09:52:45.094Z,934.0
2017-12-26T09:53:53.051Z,934.1
2017-12-26T09:55:01.204Z,934.1
2017-12-26T09:56:09.274Z,934.1
2017-12-26T09:57:17.299Z,934.1
2017-12-26T09:58:25.381Z,934.0
2017-12-26T09:59:33.464Z,934.0
2017-12-26T10:00:41.552Z,934.0
2017-12-26T10:01:49.918Z,933.9
2017-12-26T10:02:57.885Z,933.9
2017-12-26T10:04:05.808Z,933.8
2017-12-26T10:05:13.892Z,933.9
2017-12-26T10:06:21.979Z,933.9
2017-12-26T10:07:30.119Z,933.9
2017-12-26T10:08:38.150Z,933.9
2017-12-26T10:09:46.233Z,934.0
2017-12-26T10:10:54.327Z,934.0
2017-12-26T10:12:02.526Z,934.0
2017-12-26T10:13:10.613Z,934.0
2017-12-26T10:14:18.580Z,934.1
2017-12-26T10:15:26.661Z,934.1
2017-12-26T10:16:34.864Z,934.0
2017-12-26T10:17:42.830Z,934.0
2017-12-26T10:18:51.037Z,934.0
2017-12-26T10:19:59.008Z,934.0
2017-12-26T10:21:07.099Z,934.1
2017-12-26T10:22:15.185Z,934.0
2017-12-26T10:23:23.269Z,934.1
2017-12-26T10:24:31.568Z,934.1
2017-12-26T10:25:39.534Z,934.2
2017-12-26T10:26:47.549Z,934.1
2017-12-26T10:27:55.633Z,934.2
2017-12-26T10:29:03.876Z,934.1
2017-12-26T10:30:11.930Z,934.1
2017-12-26T10:31:19.889Z,934.2
2017-12-26T10:32:27.976Z,934.1
2017-12-26T10:33:36.061Z,934.2
2017-12-26T10:34:44.387Z,934.2
2017-12-26T10:35:52.287Z,934.2
2017-12-26T10:37:00.313Z,934.2
2017-12-26T10:38:08.400Z,934.3
2017-12-26T10:39:16.586Z,934.3
2017-12-26T10:40:24.584Z,934.4
2017-12-26T10:41:33.004Z,934.4
2017-12-26T10:42:41.034Z,934.5
2017-12-26T10:43:49.121Z,934.4
2017-12-26T10:44:57.203Z,934.4
2017-12-26T10:46:05.291Z,934.5
2017-12-26T10:47:13.595Z,934.4
2017-12-26T10:48:21.461Z,934.5
2017-12-26T10:49:29.602Z,934.4
2017-12-26T10:50:37.640Z,934.4
2017-12-26T10:51:45.724Z,934.4
2017-12-26T10:52:53.932Z,934.4
2017-12-26T10:54:01.897Z,934.3
2017-12-26T10:55:09.981Z,934.3
2017-12-26T10:56:18.066Z,934.3
2017-12-26T10:57:26.151Z,934.3
2017-12-26T10:58:34.291Z,934.3
2017-12-26T10:59:42.323Z,934.3
2017-12-26T11:00:50.565Z,934.3
2017-12-26T11:01:58.605Z,934.4
2017-12-26T11:03:06.579Z,934.3
2017-12-26T11:04:14.719Z,934.3
2017-12-26T11:05:22.813Z,934.4
2017-12-26T11:06:30.840Z,934.4
2017-12-26T11:07:38.926Z,934.4
2017-12-26T11:08:47.011Z,934.4
2017-12-26T11:09:57.822Z,934.3
2017-12-26T11:11:06.087Z,934.3
2017-12-26T11:12:14.357Z,934.3
2017-12-26T11:13:22.257Z,934.3
2017-12-26T11:14:30.353Z,934.3
2017-12-26T11:15:38.493Z,934.3
2017-12-26T11:16:46.694Z,934.3
2017-12-26T11:17:54.609Z,934.3
2017-12-26T11:19:02.698Z,934.3
2017-12-26T11:20:10.779Z,934.3
2017-12-26T11:21:18.928Z,934.3
2017-12-26T11:22:26.950Z,934.3
2017-12-26T11:23:35.035Z,934.3
2017-12-26T11:24:43.128Z,934.3
2017-12-26T11:25:51.206Z,934.2
2017-12-26T11:26:59.346Z,934.2
2017-12-26T11:28:07.377Z,934.1
2017-12-26T11:29:15.463Z,934.2
2017-12-26T11:30:23.548Z,934.1
2017-12-26T11:31:31.633Z,934.1
2017-12-26T11:32:39.837Z,934.1
2017-12-26T11:33:47.804Z,934.1
2017-12-26T11:34:55.890Z,934.1
2017-12-26T11:36:04.116Z,934.1
2017-12-26T11:37:12.116Z,934.1
2017-12-26T11:38:20.268Z,934.1
2017-12-26T11:40:36.321Z,934.0
2017-12-26T11:41:44.405Z,934.0
2017-12-26T11:42:52.489Z,934.0
2017-12-26T11:44:00.630Z,933.9
2017-12-26T11:45:08.672Z,934.0
2017-12-26T11:46:16.745Z,934.0
2017-12-26T11:47:24.829Z,934.0
2017-12-26T11:48:32.980Z,934.0
2017-12-26T11:49:41.230Z,934.0
2017-12-26T11:50:49.117Z,934.1
2017-12-26T11:51:57.191Z,934.1
2017-12-26T11:53:05.342Z,934.1
2017-12-26T11:54:13.612Z,934.1
2017-12-26T11:55:21.751Z,934.1
2017-12-26T11:56:29.785Z,934.1
2017-12-26T11:57:37.909Z,934.1
2017-12-26T11:58:45.952Z,934.1
2017-12-26T11:59:54.036Z,934.2
2017-12-26T12:01:02.186Z,934.2
2017-12-26T12:02:10.215Z,934.2
2017-12-26T12:03:18.301Z,934.2
2017-12-26T12:04:26.387Z,934.2
2017-12-26T12:05:34.473Z,934.2
2017-12-26T12:06:42.683Z,934.2
2017-12-26T12:07:50.644Z,934.3
2017-12-26T12:08:58.785Z,934.3
2017-12-26T12:10:06.814Z,934.3
2017-12-26T12:11:14.922Z,934.3
2017-12-26T12:12:23.043Z,934.2
2017-12-26T12:13:31.071Z,934.2
2017-12-26T12:14:39.159Z,934.2
2017-12-26T12:15:47.241Z,934.3
2017-12-26T12:16:55.351Z,934.3
2017-12-26T12:18:03.468Z,934.2
2017-12-26T12:19:11.497Z,934.3
2017-12-26T12:20:19.582Z,934.2
2017-12-26T12:21:27.676Z,934.2
2017-12-26T12:22:35.761Z,934.2
2017-12-26T12:23:43.902Z,934.3
2017-12-26T12:24:52.054Z,934.2
2017-12-26T12:26:00.019Z,934.2
2017-12-26T12:27:08.102Z,934.2
2017-12-26T12:28:16.188Z,934.3
2017-12-26T12:29:24.353Z,934.2
2017-12-26T12:30:32.391Z,934.2
2017-12-26T12:31:40.467Z,934.3
2017-12-26T12:32:48.554Z,934.2
2017-12-26T12:33:56.637Z,934.3
2017-12-26T12:35:04.778Z,934.3
2017-12-26T12:36:12.810Z,934.3
2017-12-26T12:37:20.894Z,934.3
2017-12-26T12:38:28.984Z,934.3
2017-12-26T12:39:37.069Z,934.3
2017-12-26T12:40:45.272Z,934.3
2017-12-26T12:41:53.234Z,934.3
2017-12-26T12:43:01.320Z,934.3
2017-12-26T12:44:09.487Z,934.2
2017-12-26T12:45:17.492Z,934.2
2017-12-26T12:46:25.635Z,934.2
2017-12-26T12:47:33.667Z,934.2
2017-12-26T12:48:41.915Z,934.2
2017-12-26T12:49:49.833Z,934.1
2017-12-26T12:50:57.920Z,934.1
2017-12-26T12:52:06.070Z,934.1
2017-12-26T12:53:14.182Z,934.1
2017-12-26T12:54:22.174Z,934.0
2017-12-26T12:55:30.263Z,934.1
2017-12-26T12:56:38.470Z,934.1
2017-12-26T12:57:46.492Z,934.0
2017-12-26T12:58:54.542Z,934.0
2017-12-26T13:00:02.606Z,934.1
2017-12-26T13:01:10.695Z,934.1
2017-12-26T13:02:18.937Z,934.1
2017-12-26T13:03:26.927Z,934.1
2017-12-26T13:04:34.951Z,934.0
2017-12-26T13:05:43.037Z,934.1
2017-12-26T13:06:51.140Z,934.1
2017-12-26T13:07:59.215Z,934.1
2017-12-26T13:09:07.422Z,934.1
2017-12-26T13:10:15.387Z,934.1
2017-12-26T13:11:23.627Z,934.1
2017-12-26T13:12:31.915Z,934.0
2017-12-26T13:13:39.946Z,934.0
2017-12-26T13:14:48.153Z,934.0
2017-12-26T13:15:56.117Z,934.0
2017-12-26T13:17:04.208Z,934.0
2017-12-26T13:18:12.851Z,934.0
2017-12-26T13:19:20.888Z,934.0
2017-12-26T13:20:29.096Z,934.0
2017-12-26T13:21:37.069Z,933.9
2017-12-26T13:22:45.184Z,933.9
2017-12-26T13:23:53.242Z,934.0
2017-12-26T13:25:01.322Z,934.0
2017-12-26T13:26:09.535Z,934.0
2017-12-26T13:27:17.554Z,934.0
2017-12-26T13:28:25.642Z,933.9
2017-12-26T13:29:33.669Z,934.0
2017-12-26T13:30:41.756Z,933.9
2017-12-26T13:31:49.948Z,934.0
2017-12-26T13:32:57.933Z,933.9
2017-12-26T13:34:06.012Z,934.0
2017-12-26T13:35:14.098Z,933.9
2017-12-26T13:36:22.346Z,934.0
2017-12-26T13:37:30.325Z,934.0
2017-12-26T13:38:38.354Z,934.0
2017-12-26T13:39:46.441Z,934.0
2017-12-26T13:40:54.687Z,934.0
2017-12-26T13:42:02.612Z,934.0
2017-12-26T13:43:10.753Z,934.0
2017-12-26T13:44:18.837Z,934.0
2017-12-26T13:45:27.016Z,934.0
2017-12-26T13:46:34.955Z,934.0
2017-12-26T13:47:43.044Z,934.0
2017-12-26T13:48:51.188Z,934.0
2017-12-26T13:49:59.216Z,934.0
2017-12-26T13:51:07.304Z,934.0
2017-12-26T13:52:15.392Z,933.9
2017-12-26T13:53:23.477Z,934.0
2017-12-26T13:54:31.673Z,934.0
2017-12-26T13:55:39.659Z,934.0
2017-12-26T13:56:47.825Z,933.9
2017-12-26T13:57:55.909Z,933.9
2017-12-26T13:59:04.073Z,933.9
2017-12-26T14:00:12.136Z,933.9
2017-12-26T14:01:20.165Z,933.9
2017-12-26T14:02:28.249Z,933.9
2017-12-26T14:03:36.339Z,933.9
2017-12-26T14:04:44.425Z,933.8
2017-12-26T14:05:52.563Z,933.8
2017-12-26T14:07:00.593Z,933.8
2017-12-26T14:08:08.881Z,933.8
2017-12-26T14:09:16.858Z,933.7
2017-12-26T14:10:24.942Z,933.7
2017-12-26T14:11:33.083Z,933.7
2017-12-26T14:12:41.112Z,933.7
2017-12-26T14:13:49.213Z,933.6
2017-12-26T14:14:57.296Z,933.6
2017-12-26T14:16:05.505Z,933.6
2017-12-26T14:17:13.622Z,933.6
2017-12-26T14:18:21.553Z,933.6
2017-12-26T14:19:29.639Z,933.6
2017-12-26T14:20:37.726Z,933.6
2017-12-26T14:21:45.811Z,933.6
2017-12-26T14:22:53.988Z,933.6
2017-12-26T14:24:01.984Z,933.6
2017-12-26T14:25:10.069Z,933.6
2017-12-26T14:26:18.349Z,933.6
2017-12-26T14:27:26.250Z,933.6
2017-12-26T14:28:34.390Z,933.5
2017-12-26T14:29:42.412Z,933.5
2017-12-26T14:30:51.258Z,933.6
2017-12-26T14:31:59.593Z,933.6
2017-12-26T14:33:07.428Z,933.5
2017-12-26T14:34:15.709Z,933.6
2017-12-26T14:35:23.602Z,933.6
2017-12-26T14:36:31.686Z,933.6
2017-12-26T14:37:39.775Z,933.6